sensor_id;sensor_type;location;lat;lon;timestamp;P1;durP1;ratioP1;P2;durP2;ratioP2
73120;SDS011;61307;49.628;-1.624;2023-05-15T00:00:55;6.50;;;4.65;;
73120;SDS011;61307;49.628;-1.624;2023-05-15T00:03:23;5.57;;;4.53;;
73120;SDS011;61307;49.628;-1.624;2023-05-15T00:05:51;5.78;;;4.82;;
73120;SDS011;61307;49.628;-1.624;2023-05-15T00:08:18;6.60;;;4.60;;
73120;SDS011;61307;49.628;-1.624;2023-05-15T00:10:47;5.82;;;4.93;;
73120;SDS011;61307;49.628;-1.624;2023-05-15T00:13:15;5.97;;;4.70;;
73120;SDS011;61307;49.628;-1.624;2023-05-15T00:15:43;5.45;;;4.90;;
73120;SDS011;61307;49.628;-1.624;2023-05-15T00:18:10;8.63;;;5.03;;
73120;SDS011;61307;49.628;-1.624;2023-05-15T00:20:37;5.65;;;4.68;;
73120;SDS011;61307;49.628;-1.624;2023-05-15T00:23:04;5.07;;;4.50;;
73120;SDS011;61307;49.628;-1.624;2023-05-15T00:25:31;5.57;;;4.68;;
73120;SDS011;61307;49.628;-1.624;2023-05-15T00:28:00;5.13;;;4.18;;
73120;SDS011;61307;49.628;-1.624;2023-05-15T00:30:27;6.35;;;4.65;;
73120;SDS011;61307;49.628;-1.624;2023-05-15T00:32:54;5.78;;;4.50;;
73120;SDS011;61307;49.628;-1.624;2023-05-15T00:35:21;5.28;;;4.53;;
73120;SDS011;61307;49.628;-1.624;2023-05-15T00:37:48;6.78;;;4.47;;
73120;SDS011;61307;49.628;-1.624;2023-05-15T00:40:17;4.88;;;4.05;;
73120;SDS011;61307;49.628;-1.624;2023-05-15T00:42:49;6.10;;;4.43;;
73120;SDS011;61307;49.628;-1.624;2023-05-15T00:45:20;5.05;;;4.18;;
73120;SDS011;61307;49.628;-1.624;2023-05-15T00:47:47;5.28;;;4.50;;
73120;SDS011;61307;49.628;-1.624;2023-05-15T00:50:15;6.03;;;4.60;;
73120;SDS011;61307;49.628;-1.624;2023-05-15T00:52:43;6.10;;;4.70;;
73120;SDS011;61307;49.628;-1.624;2023-05-15T00:55:10;6.85;;;4.53;;
73120;SDS011;61307;49.628;-1.624;2023-05-15T00:57:38;5.18;;;4.53;;
73120;SDS011;61307;49.628;-1.624;2023-05-15T01:00:08;5.68;;;4.38;;
73120;SDS011;61307;49.628;-1.624;2023-05-15T01:02:38;5.70;;;4.20;;
73120;SDS011;61307;49.628;-1.624;2023-05-15T01:05:05;9.23;;;4.50;;
73120;SDS011;61307;49.628;-1.624;2023-05-15T01:07:33;5.40;;;4.55;;
73120;SDS011;61307;49.628;-1.624;2023-05-15T01:10:06;6.57;;;4.50;;
73120;SDS011;61307;49.628;-1.624;2023-05-15T01:12:33;6.07;;;4.30;;
73120;SDS011;61307;49.628;-1.624;2023-05-15T01:15:03;6.30;;;4.93;;
73120;SDS011;61307;49.628;-1.624;2023-05-15T01:17:30;5.72;;;4.50;;
73120;SDS011;61307;49.628;-1.624;2023-05-15T01:19:59;5.43;;;4.40;;
73120;SDS011;61307;49.628;-1.624;2023-05-15T01:22:36;6.25;;;4.30;;
73120;SDS011;61307;49.628;-1.624;2023-05-15T01:25:25;5.15;;;4.30;;
73120;SDS011;61307;49.628;-1.624;2023-05-15T01:28:12;4.38;;;3.97;;
73120;SDS011;61307;49.628;-1.624;2023-05-15T01:30:44;4.50;;;4.10;;
73120;SDS011;61307;49.628;-1.624;2023-05-15T01:33:14;6.03;;;4.63;;
73120;SDS011;61307;49.628;-1.624;2023-05-15T01:35:46;6.65;;;4.50;;
73120;SDS011;61307;49.628;-1.624;2023-05-15T01:38:18;8.45;;;4.93;;
73120;SDS011;61307;49.628;-1.624;2023-05-15T01:40:54;5.32;;;4.60;;
73120;SDS011;61307;49.628;-1.624;2023-05-15T01:43:27;6.47;;;4.57;;
73120;SDS011;61307;49.628;-1.624;2023-05-15T01:45:56;5.90;;;4.28;;
73120;SDS011;61307;49.628;-1.624;2023-05-15T01:48:24;5.85;;;4.30;;
73120;SDS011;61307;49.628;-1.624;2023-05-15T01:50:53;5.10;;;4.28;;
73120;SDS011;61307;49.628;-1.624;2023-05-15T01:53:23;5.35;;;4.22;;
73120;SDS011;61307;49.628;-1.624;2023-05-15T01:55:52;6.10;;;4.65;;
73120;SDS011;61307;49.628;-1.624;2023-05-15T01:58:20;5.80;;;4.35;;
73120;SDS011;61307;49.628;-1.624;2023-05-15T02:00:50;7.15;;;4.20;;
73120;SDS011;61307;49.628;-1.624;2023-05-15T02:03:18;5.68;;;4.40;;
73120;SDS011;61307;49.628;-1.624;2023-05-15T02:05:45;5.63;;;4.35;;
73120;SDS011;61307;49.628;-1.624;2023-05-15T02:08:13;5.03;;;4.07;;
73120;SDS011;61307;49.628;-1.624;2023-05-15T02:10:41;6.35;;;4.35;;
73120;SDS011;61307;49.628;-1.624;2023-05-15T02:13:09;5.10;;;4.38;;
73120;SDS011;61307;49.628;-1.624;2023-05-15T02:15:37;6.35;;;4.57;;
73120;SDS011;61307;49.628;-1.624;2023-05-15T02:18:06;5.95;;;4.25;;
73120;SDS011;61307;49.628;-1.624;2023-05-15T02:20:33;7.07;;;4.55;;
73120;SDS011;61307;49.628;-1.624;2023-05-15T02:23:00;6.63;;;4.00;;
73120;SDS011;61307;49.628;-1.624;2023-05-15T02:25:33;5.20;;;4.22;;
73120;SDS011;61307;49.628;-1.624;2023-05-15T02:28:10;7.38;;;4.40;;
73120;SDS011;61307;49.628;-1.624;2023-05-15T02:30:45;5.70;;;4.50;;
73120;SDS011;61307;49.628;-1.624;2023-05-15T02:33:22;6.28;;;4.45;;
73120;SDS011;61307;49.628;-1.624;2023-05-15T02:35:56;7.28;;;4.28;;
73120;SDS011;61307;49.628;-1.624;2023-05-15T02:38:28;6.78;;;4.38;;
73120;SDS011;61307;49.628;-1.624;2023-05-15T02:40:58;6.93;;;4.57;;
73120;SDS011;61307;49.628;-1.624;2023-05-15T02:43:27;6.47;;;4.35;;
73120;SDS011;61307;49.628;-1.624;2023-05-15T02:45:55;6.50;;;4.38;;
73120;SDS011;61307;49.628;-1.624;2023-05-15T02:48:24;6.78;;;4.55;;
73120;SDS011;61307;49.628;-1.624;2023-05-15T02:50:52;6.95;;;4.63;;
73120;SDS011;61307;49.628;-1.624;2023-05-15T02:53:19;5.63;;;4.65;;
73120;SDS011;61307;49.628;-1.624;2023-05-15T02:55:47;6.97;;;4.00;;
73120;SDS011;61307;49.628;-1.624;2023-05-15T02:58:14;5.35;;;3.88;;
73120;SDS011;61307;49.628;-1.624;2023-05-15T03:00:41;7.05;;;4.57;;
73120;SDS011;61307;49.628;-1.624;2023-05-15T03:03:08;6.22;;;4.78;;
73120;SDS011;61307;49.628;-1.624;2023-05-15T03:05:37;7.05;;;4.75;;
73120;SDS011;61307;49.628;-1.624;2023-05-15T03:08:04;5.65;;;4.40;;
73120;SDS011;61307;49.628;-1.624;2023-05-15T03:10:31;5.72;;;4.18;;
73120;SDS011;61307;49.628;-1.624;2023-05-15T03:12:58;6.18;;;4.13;;
73120;SDS011;61307;49.628;-1.624;2023-05-15T03:15:25;7.75;;;4.68;;
73120;SDS011;61307;49.628;-1.624;2023-05-15T03:17:52;5.47;;;4.50;;
73120;SDS011;61307;49.628;-1.624;2023-05-15T03:20:19;6.30;;;4.68;;
73120;SDS011;61307;49.628;-1.624;2023-05-15T03:22:48;5.82;;;4.18;;
73120;SDS011;61307;49.628;-1.624;2023-05-15T03:25:15;6.47;;;4.13;;
73120;SDS011;61307;49.628;-1.624;2023-05-15T03:27:42;6.43;;;4.50;;
73120;SDS011;61307;49.628;-1.624;2023-05-15T03:30:09;5.25;;;4.40;;
73120;SDS011;61307;49.628;-1.624;2023-05-15T03:32:37;7.65;;;5.20;;
73120;SDS011;61307;49.628;-1.624;2023-05-15T03:35:04;6.32;;;4.60;;
73120;SDS011;61307;49.628;-1.624;2023-05-15T03:37:31;7.88;;;5.07;;
73120;SDS011;61307;49.628;-1.624;2023-05-15T03:40:00;7.90;;;4.90;;
73120;SDS011;61307;49.628;-1.624;2023-05-15T03:42:27;6.07;;;4.55;;
73120;SDS011;61307;49.628;-1.624;2023-05-15T03:44:54;6.97;;;4.82;;
73120;SDS011;61307;49.628;-1.624;2023-05-15T03:47:21;8.60;;;4.78;;
73120;SDS011;61307;49.628;-1.624;2023-05-15T03:49:48;7.22;;;5.07;;
73120;SDS011;61307;49.628;-1.624;2023-05-15T03:52:15;9.05;;;5.28;;
73120;SDS011;61307;49.628;-1.624;2023-05-15T03:54:42;8.80;;;5.28;;
73120;SDS011;61307;49.628;-1.624;2023-05-15T03:57:11;6.30;;;5.10;;
73120;SDS011;61307;49.628;-1.624;2023-05-15T03:59:38;6.63;;;5.13;;
73120;SDS011;61307;49.628;-1.624;2023-05-15T04:02:05;6.60;;;4.95;;
73120;SDS011;61307;49.628;-1.624;2023-05-15T04:04:32;5.13;;;4.60;;
73120;SDS011;61307;49.628;-1.624;2023-05-15T04:07:00;5.57;;;4.88;;
73120;SDS011;61307;49.628;-1.624;2023-05-15T04:09:28;5.85;;;5.05;;
73120;SDS011;61307;49.628;-1.624;2023-05-15T04:11:55;6.22;;;4.93;;
73120;SDS011;61307;49.628;-1.624;2023-05-15T04:14:24;7.93;;;5.30;;
73120;SDS011;61307;49.628;-1.624;2023-05-15T04:16:51;6.72;;;4.85;;
73120;SDS011;61307;49.628;-1.624;2023-05-15T04:19:18;6.07;;;4.70;;
73120;SDS011;61307;49.628;-1.624;2023-05-15T04:21:45;5.25;;;4.15;;
73120;SDS011;61307;49.628;-1.624;2023-05-15T04:24:12;4.85;;;4.35;;
73120;SDS011;61307;49.628;-1.624;2023-05-15T04:26:39;8.00;;;4.40;;
73120;SDS011;61307;49.628;-1.624;2023-05-15T04:29:06;5.97;;;4.28;;
73120;SDS011;61307;49.628;-1.624;2023-05-15T04:31:35;6.05;;;4.22;;
73120;SDS011;61307;49.628;-1.624;2023-05-15T04:34:02;4.70;;;3.95;;
73120;SDS011;61307;49.628;-1.624;2023-05-15T04:36:30;4.57;;;3.55;;
73120;SDS011;61307;49.628;-1.624;2023-05-15T04:38:58;6.32;;;3.85;;
73120;SDS011;61307;49.628;-1.624;2023-05-15T04:41:25;4.75;;;3.75;;
73120;SDS011;61307;49.628;-1.624;2023-05-15T04:43:52;4.70;;;3.47;;
73120;SDS011;61307;49.628;-1.624;2023-05-15T04:46:19;4.90;;;3.65;;
73120;SDS011;61307;49.628;-1.624;2023-05-15T04:48:48;6.60;;;3.30;;
73120;SDS011;61307;49.628;-1.624;2023-05-15T04:51:15;5.72;;;3.80;;
73120;SDS011;61307;49.628;-1.624;2023-05-15T04:53:42;5.18;;;3.67;;
73120;SDS011;61307;49.628;-1.624;2023-05-15T04:56:09;4.50;;;3.28;;
73120;SDS011;61307;49.628;-1.624;2023-05-15T04:58:36;4.25;;;3.20;;
73120;SDS011;61307;49.628;-1.624;2023-05-15T05:01:03;5.05;;;3.25;;
73120;SDS011;61307;49.628;-1.624;2023-05-15T05:03:31;3.75;;;3.17;;
73120;SDS011;61307;49.628;-1.624;2023-05-15T05:05:59;4.75;;;3.50;;
73120;SDS011;61307;49.628;-1.624;2023-05-15T05:08:26;4.32;;;3.42;;
73120;SDS011;61307;49.628;-1.624;2023-05-15T05:10:56;3.20;;;2.90;;
73120;SDS011;61307;49.628;-1.624;2023-05-15T05:13:23;4.10;;;3.33;;
73120;SDS011;61307;49.628;-1.624;2023-05-15T05:15:50;4.50;;;2.90;;
73120;SDS011;61307;49.628;-1.624;2023-05-15T05:18:17;4.88;;;3.10;;
73120;SDS011;61307;49.628;-1.624;2023-05-15T05:20:44;4.88;;;3.05;;
73120;SDS011;61307;49.628;-1.624;2023-05-15T05:23:12;3.97;;;2.83;;
73120;SDS011;61307;49.628;-1.624;2023-05-15T05:25:40;3.97;;;2.92;;
73120;SDS011;61307;49.628;-1.624;2023-05-15T05:28:07;4.05;;;3.22;;
73120;SDS011;61307;49.628;-1.624;2023-05-15T05:30:34;5.18;;;3.03;;
73120;SDS011;61307;49.628;-1.624;2023-05-15T05:33:01;3.28;;;2.97;;
73120;SDS011;61307;49.628;-1.624;2023-05-15T05:35:28;3.40;;;2.92;;
73120;SDS011;61307;49.628;-1.624;2023-05-15T05:37:55;3.60;;;2.90;;
73120;SDS011;61307;49.628;-1.624;2023-05-15T05:40:25;4.03;;;3.05;;
73120;SDS011;61307;49.628;-1.624;2023-05-15T05:42:52;5.22;;;2.70;;
73120;SDS011;61307;49.628;-1.624;2023-05-15T05:45:19;5.40;;;3.10;;
73120;SDS011;61307;49.628;-1.624;2023-05-15T05:47:46;3.40;;;2.55;;
73120;SDS011;61307;49.628;-1.624;2023-05-15T05:50:13;3.72;;;2.65;;
73120;SDS011;61307;49.628;-1.624;2023-05-15T05:52:40;2.75;;;2.10;;
73120;SDS011;61307;49.628;-1.624;2023-05-15T05:55:07;3.13;;;2.70;;
73120;SDS011;61307;49.628;-1.624;2023-05-15T05:57:36;3.22;;;2.72;;
73120;SDS011;61307;49.628;-1.624;2023-05-15T06:00:04;3.20;;;2.80;;
73120;SDS011;61307;49.628;-1.624;2023-05-15T06:02:33;3.65;;;2.78;;
73120;SDS011;61307;49.628;-1.624;2023-05-15T06:05:01;3.53;;;2.47;;
73120;SDS011;61307;49.628;-1.624;2023-05-15T06:07:28;4.50;;;2.70;;
73120;SDS011;61307;49.628;-1.624;2023-05-15T06:09:55;2.92;;;2.63;;
73120;SDS011;61307;49.628;-1.624;2023-05-15T06:12:23;2.53;;;2.33;;
73120;SDS011;61307;49.628;-1.624;2023-05-15T06:14:52;4.60;;;2.80;;
73120;SDS011;61307;49.628;-1.624;2023-05-15T06:17:19;4.35;;;2.92;;
73120;SDS011;61307;49.628;-1.624;2023-05-15T06:19:45;2.60;;;2.40;;
73120;SDS011;61307;49.628;-1.624;2023-05-15T06:22:13;2.63;;;2.40;;
73120;SDS011;61307;49.628;-1.624;2023-05-15T06:24:40;3.65;;;2.30;;
73120;SDS011;61307;49.628;-1.624;2023-05-15T06:27:07;2.90;;;2.30;;
73120;SDS011;61307;49.628;-1.624;2023-05-15T06:29:34;2.75;;;2.28;;
73120;SDS011;61307;49.628;-1.624;2023-05-15T06:32:03;3.22;;;2.40;;
73120;SDS011;61307;49.628;-1.624;2023-05-15T06:34:30;3.20;;;2.50;;
73120;SDS011;61307;49.628;-1.624;2023-05-15T06:36:57;2.60;;;2.40;;
73120;SDS011;61307;49.628;-1.624;2023-05-15T06:39:25;2.58;;;2.30;;
73120;SDS011;61307;49.628;-1.624;2023-05-15T06:41:52;2.40;;;2.10;;
73120;SDS011;61307;49.628;-1.624;2023-05-15T06:44:23;5.28;;;2.42;;
73120;SDS011;61307;49.628;-1.624;2023-05-15T06:46:50;4.93;;;2.75;;
73120;SDS011;61307;49.628;-1.624;2023-05-15T06:49:19;2.60;;;2.05;;
73120;SDS011;61307;49.628;-1.624;2023-05-15T06:51:46;4.35;;;2.53;;
73120;SDS011;61307;49.628;-1.624;2023-05-15T06:54:13;4.75;;;2.60;;
73120;SDS011;61307;49.628;-1.624;2023-05-15T06:56:40;3.78;;;2.13;;
73120;SDS011;61307;49.628;-1.624;2023-05-15T06:59:07;4.63;;;2.42;;
73120;SDS011;61307;49.628;-1.624;2023-05-15T07:01:34;3.45;;;2.55;;
73120;SDS011;61307;49.628;-1.624;2023-05-15T07:04:02;3.35;;;2.55;;
73120;SDS011;61307;49.628;-1.624;2023-05-15T07:06:31;3.95;;;2.25;;
73120;SDS011;61307;49.628;-1.624;2023-05-15T07:08:58;2.75;;;2.30;;
73120;SDS011;61307;49.628;-1.624;2023-05-15T07:11:25;3.60;;;2.38;;
73120;SDS011;61307;49.628;-1.624;2023-05-15T07:13:53;3.53;;;2.47;;
73120;SDS011;61307;49.628;-1.624;2023-05-15T07:16:20;5.82;;;2.67;;
73120;SDS011;61307;49.628;-1.624;2023-05-15T07:18:47;3.53;;;2.50;;
73120;SDS011;61307;49.628;-1.624;2023-05-15T07:21:14;4.35;;;2.80;;
73120;SDS011;61307;49.628;-1.624;2023-05-15T07:23:42;8.13;;;2.83;;
73120;SDS011;61307;49.628;-1.624;2023-05-15T07:26:09;3.67;;;2.50;;
73120;SDS011;61307;49.628;-1.624;2023-05-15T07:28:36;5.10;;;2.60;;
73120;SDS011;61307;49.628;-1.624;2023-05-15T07:31:03;4.88;;;2.47;;
73120;SDS011;61307;49.628;-1.624;2023-05-15T07:33:31;5.68;;;2.75;;
73120;SDS011;61307;49.628;-1.624;2023-05-15T07:35:58;4.32;;;2.70;;
73120;SDS011;61307;49.628;-1.624;2023-05-15T07:38:25;7.80;;;2.97;;
73120;SDS011;61307;49.628;-1.624;2023-05-15T07:40:53;5.68;;;2.88;;
73120;SDS011;61307;49.628;-1.624;2023-05-15T07:43:20;4.93;;;2.70;;
73120;SDS011;61307;49.628;-1.624;2023-05-15T07:45:47;5.85;;;2.75;;
73120;SDS011;61307;49.628;-1.624;2023-05-15T07:48:15;5.10;;;2.70;;
73120;SDS011;61307;49.628;-1.624;2023-05-15T07:50:43;5.72;;;2.72;;
73120;SDS011;61307;49.628;-1.624;2023-05-15T07:53:11;7.63;;;2.78;;
73120;SDS011;61307;49.628;-1.624;2023-05-15T07:55:41;5.00;;;2.72;;
73120;SDS011;61307;49.628;-1.624;2023-05-15T07:58:11;4.15;;;2.33;;
73120;SDS011;61307;49.628;-1.624;2023-05-15T08:00:38;6.63;;;2.70;;
73120;SDS011;61307;49.628;-1.624;2023-05-15T08:03:05;6.18;;;2.60;;
73120;SDS011;61307;49.628;-1.624;2023-05-15T08:05:32;7.80;;;3.10;;
73120;SDS011;61307;49.628;-1.624;2023-05-15T08:08:00;7.45;;;3.05;;
73120;SDS011;61307;49.628;-1.624;2023-05-15T08:10:27;5.90;;;2.58;;
73120;SDS011;61307;49.628;-1.624;2023-05-15T08:12:54;4.88;;;2.70;;
73120;SDS011;61307;49.628;-1.624;2023-05-15T08:15:23;7.57;;;2.70;;
73120;SDS011;61307;49.628;-1.624;2023-05-15T08:17:50;5.43;;;2.70;;
73120;SDS011;61307;49.628;-1.624;2023-05-15T08:20:17;6.80;;;2.92;;
73120;SDS011;61307;49.628;-1.624;2023-05-15T08:22:44;5.95;;;2.75;;
73120;SDS011;61307;49.628;-1.624;2023-05-15T08:25:12;4.43;;;2.65;;
73120;SDS011;61307;49.628;-1.624;2023-05-15T08:27:39;8.30;;;2.78;;
73120;SDS011;61307;49.628;-1.624;2023-05-15T08:30:06;8.40;;;2.80;;
73120;SDS011;61307;49.628;-1.624;2023-05-15T08:32:35;5.75;;;3.00;;
73120;SDS011;61307;49.628;-1.624;2023-05-15T08:35:02;6.72;;;2.80;;
73120;SDS011;61307;49.628;-1.624;2023-05-15T08:37:30;6.93;;;2.83;;
73120;SDS011;61307;49.628;-1.624;2023-05-15T08:39:57;7.70;;;3.15;;
73120;SDS011;61307;49.628;-1.624;2023-05-15T08:42:27;5.38;;;2.58;;
73120;SDS011;61307;49.628;-1.624;2023-05-15T08:44:58;8.50;;;2.67;;
73120;SDS011;61307;49.628;-1.624;2023-05-15T08:47:26;7.45;;;2.55;;
73120;SDS011;61307;49.628;-1.624;2023-05-15T08:49:57;6.13;;;2.53;;
73120;SDS011;61307;49.628;-1.624;2023-05-15T08:52:29;6.63;;;2.80;;
73120;SDS011;61307;49.628;-1.624;2023-05-15T08:54:57;8.10;;;2.75;;
73120;SDS011;61307;49.628;-1.624;2023-05-15T08:57:25;6.63;;;3.00;;
73120;SDS011;61307;49.628;-1.624;2023-05-15T08:59:53;7.70;;;3.08;;
73120;SDS011;61307;49.628;-1.624;2023-05-15T09:02:21;15.15;;;3.08;;
73120;SDS011;61307;49.628;-1.624;2023-05-15T09:04:49;6.65;;;2.60;;
73120;SDS011;61307;49.628;-1.624;2023-05-15T09:07:18;9.85;;;2.72;;
73120;SDS011;61307;49.628;-1.624;2023-05-15T09:09:46;15.32;;;2.90;;
73120;SDS011;61307;49.628;-1.624;2023-05-15T09:12:13;18.27;;;3.08;;
73120;SDS011;61307;49.628;-1.624;2023-05-15T09:14:41;10.98;;;2.95;;
73120;SDS011;61307;49.628;-1.624;2023-05-15T09:17:09;14.20;;;3.55;;
73120;SDS011;61307;49.628;-1.624;2023-05-15T09:19:37;17.90;;;3.13;;
73120;SDS011;61307;49.628;-1.624;2023-05-15T09:22:14;15.48;;;3.95;;
73120;SDS011;61307;49.628;-1.624;2023-05-15T09:24:48;18.80;;;3.70;;
73120;SDS011;61307;49.628;-1.624;2023-05-15T09:27:17;13.98;;;3.42;;
73120;SDS011;61307;49.628;-1.624;2023-05-15T09:29:45;18.25;;;3.63;;
73120;SDS011;61307;49.628;-1.624;2023-05-15T09:32:16;13.13;;;3.10;;
73120;SDS011;61307;49.628;-1.624;2023-05-15T09:34:43;10.68;;;2.97;;
73120;SDS011;61307;49.628;-1.624;2023-05-15T09:37:12;13.02;;;3.28;;
73120;SDS011;61307;49.628;-1.624;2023-05-15T09:39:55;10.82;;;2.92;;
73120;SDS011;61307;49.628;-1.624;2023-05-15T09:42:34;9.18;;;2.55;;
73120;SDS011;61307;49.628;-1.624;2023-05-15T09:45:03;8.40;;;2.65;;
73120;SDS011;61307;49.628;-1.624;2023-05-15T09:47:30;8.13;;;2.38;;
73120;SDS011;61307;49.628;-1.624;2023-05-15T09:49:58;8.25;;;2.72;;
73120;SDS011;61307;49.628;-1.624;2023-05-15T09:52:26;13.10;;;2.85;;
73120;SDS011;61307;49.628;-1.624;2023-05-15T09:54:56;4.88;;;2.50;;
73120;SDS011;61307;49.628;-1.624;2023-05-15T09:57:23;7.53;;;2.22;;
73120;SDS011;61307;49.628;-1.624;2023-05-15T09:59:50;10.10;;;2.88;;
73120;SDS011;61307;49.628;-1.624;2023-05-15T10:02:23;6.70;;;2.22;;
73120;SDS011;61307;49.628;-1.624;2023-05-15T10:04:52;8.63;;;2.90;;
73120;SDS011;61307;49.628;-1.624;2023-05-15T10:07:26;7.90;;;2.50;;
73120;SDS011;61307;49.628;-1.624;2023-05-15T10:09:55;5.70;;;2.03;;
73120;SDS011;61307;49.628;-1.624;2023-05-15T10:12:22;9.55;;;2.42;;
73120;SDS011;61307;49.628;-1.624;2023-05-15T10:14:50;6.18;;;2.30;;
73120;SDS011;61307;49.628;-1.624;2023-05-15T10:17:19;7.30;;;2.17;;
73120;SDS011;61307;49.628;-1.624;2023-05-15T10:19:46;8.38;;;2.30;;
73120;SDS011;61307;49.628;-1.624;2023-05-15T10:22:15;6.43;;;2.22;;
73120;SDS011;61307;49.628;-1.624;2023-05-15T10:24:47;7.47;;;2.63;;
73120;SDS011;61307;49.628;-1.624;2023-05-15T10:27:23;7.90;;;2.08;;
73120;SDS011;61307;49.628;-1.624;2023-05-15T10:29:51;5.97;;;2.20;;
73120;SDS011;61307;49.628;-1.624;2023-05-15T10:32:20;10.13;;;2.40;;
73120;SDS011;61307;49.628;-1.624;2023-05-15T10:34:48;12.18;;;2.65;;
73120;SDS011;61307;49.628;-1.624;2023-05-15T10:37:16;4.28;;;1.92;;
73120;SDS011;61307;49.628;-1.624;2023-05-15T10:39:44;8.60;;;2.10;;
73120;SDS011;61307;49.628;-1.624;2023-05-15T10:42:12;5.55;;;2.30;;
73120;SDS011;61307;49.628;-1.624;2023-05-15T10:44:41;3.78;;;1.95;;
73120;SDS011;61307;49.628;-1.624;2023-05-15T10:47:08;6.22;;;2.13;;
73120;SDS011;61307;49.628;-1.624;2023-05-15T10:49:35;7.00;;;2.30;;
73120;SDS011;61307;49.628;-1.624;2023-05-15T10:52:03;7.80;;;2.22;;
73120;SDS011;61307;49.628;-1.624;2023-05-15T10:54:30;7.28;;;2.00;;
73120;SDS011;61307;49.628;-1.624;2023-05-15T10:56:57;5.07;;;2.00;;
73120;SDS011;61307;49.628;-1.624;2023-05-15T10:59:33;5.90;;;2.00;;
73120;SDS011;61307;49.628;-1.624;2023-05-15T11:02:20;5.82;;;2.20;;
73120;SDS011;61307;49.628;-1.624;2023-05-15T11:04:52;7.30;;;2.22;;
73120;SDS011;61307;49.628;-1.624;2023-05-15T11:07:20;4.72;;;1.90;;
73120;SDS011;61307;49.628;-1.624;2023-05-15T11:09:48;6.60;;;2.17;;
73120;SDS011;61307;49.628;-1.624;2023-05-15T11:12:15;5.28;;;1.85;;
73120;SDS011;61307;49.628;-1.624;2023-05-15T11:14:43;6.88;;;1.83;;
73120;SDS011;61307;49.628;-1.624;2023-05-15T11:17:32;6.47;;;2.15;;
73120;SDS011;61307;49.628;-1.624;2023-05-15T11:19:59;7.20;;;2.13;;
73120;SDS011;61307;49.628;-1.624;2023-05-15T11:22:27;5.78;;;1.85;;
73120;SDS011;61307;49.628;-1.624;2023-05-15T11:24:59;4.97;;;2.00;;
73120;SDS011;61307;49.628;-1.624;2023-05-15T11:27:28;5.43;;;2.13;;
73120;SDS011;61307;49.628;-1.624;2023-05-15T11:32:53;6.00;;;2.00;;
73120;SDS011;61307;49.628;-1.624;2023-05-15T11:35:23;5.38;;;1.85;;
73120;SDS011;61307;49.628;-1.624;2023-05-15T11:37:52;4.45;;;1.85;;
73120;SDS011;61307;49.628;-1.624;2023-05-15T11:40:22;5.53;;;1.90;;
73120;SDS011;61307;49.628;-1.624;2023-05-15T11:43:00;7.20;;;2.10;;
73120;SDS011;61307;49.628;-1.624;2023-05-15T11:45:30;7.30;;;2.25;;
73120;SDS011;61307;49.628;-1.624;2023-05-15T11:48:02;6.78;;;1.90;;
73120;SDS011;61307;49.628;-1.624;2023-05-15T11:50:31;6.70;;;2.30;;
73120;SDS011;61307;49.628;-1.624;2023-05-15T11:53:03;7.68;;;2.05;;
73120;SDS011;61307;49.628;-1.624;2023-05-15T11:55:31;7.82;;;2.45;;
73120;SDS011;61307;49.628;-1.624;2023-05-15T11:57:59;6.05;;;2.28;;
73120;SDS011;61307;49.628;-1.624;2023-05-15T12:00:27;6.80;;;2.10;;
73120;SDS011;61307;49.628;-1.624;2023-05-15T12:02:54;3.70;;;1.67;;
73120;SDS011;61307;49.628;-1.624;2023-05-15T12:05:23;8.02;;;2.05;;
73120;SDS011;61307;49.628;-1.624;2023-05-15T12:07:51;5.30;;;2.10;;
73120;SDS011;61307;49.628;-1.624;2023-05-15T12:10:18;5.43;;;2.50;;
73120;SDS011;61307;49.628;-1.624;2023-05-15T12:12:45;7.57;;;2.15;;
73120;SDS011;61307;49.628;-1.624;2023-05-15T12:15:13;5.15;;;2.08;;
73120;SDS011;61307;49.628;-1.624;2023-05-15T12:17:41;8.82;;;2.10;;
73120;SDS011;61307;49.628;-1.624;2023-05-15T12:20:10;7.05;;;2.40;;
73120;SDS011;61307;49.628;-1.624;2023-05-15T12:22:41;6.47;;;1.65;;
73120;SDS011;61307;49.628;-1.624;2023-05-15T12:25:09;5.80;;;2.15;;
73120;SDS011;61307;49.628;-1.624;2023-05-15T12:27:37;5.13;;;1.98;;
73120;SDS011;61307;49.628;-1.624;2023-05-15T12:30:05;4.90;;;2.13;;
73120;SDS011;61307;49.628;-1.624;2023-05-15T12:32:35;7.10;;;2.10;;
73120;SDS011;61307;49.628;-1.624;2023-05-15T12:35:03;5.72;;;2.55;;
73120;SDS011;61307;49.628;-1.624;2023-05-15T12:37:31;4.53;;;1.75;;
73120;SDS011;61307;49.628;-1.624;2023-05-15T12:40:01;8.35;;;2.45;;
73120;SDS011;61307;49.628;-1.624;2023-05-15T12:42:37;6.35;;;2.20;;
73120;SDS011;61307;49.628;-1.624;2023-05-15T12:45:10;5.85;;;2.00;;
73120;SDS011;61307;49.628;-1.624;2023-05-15T12:47:39;5.68;;;2.30;;
73120;SDS011;61307;49.628;-1.624;2023-05-15T12:50:13;8.75;;;2.00;;
73120;SDS011;61307;49.628;-1.624;2023-05-15T12:52:45;9.13;;;2.30;;
73120;SDS011;61307;49.628;-1.624;2023-05-15T12:55:16;4.88;;;1.88;;
73120;SDS011;61307;49.628;-1.624;2023-05-15T12:57:43;4.18;;;2.05;;
73120;SDS011;61307;49.628;-1.624;2023-05-15T13:00:11;6.43;;;2.47;;
73120;SDS011;61307;49.628;-1.624;2023-05-15T13:02:41;6.53;;;2.10;;
73120;SDS011;61307;49.628;-1.624;2023-05-15T13:05:09;4.07;;;2.10;;
73120;SDS011;61307;49.628;-1.624;2023-05-15T13:07:36;10.25;;;2.55;;
73120;SDS011;61307;49.628;-1.624;2023-05-15T13:10:06;6.38;;;2.05;;
73120;SDS011;61307;49.628;-1.624;2023-05-15T13:12:36;4.68;;;2.40;;
73120;SDS011;61307;49.628;-1.624;2023-05-15T13:15:04;5.50;;;2.20;;
73120;SDS011;61307;49.628;-1.624;2023-05-15T13:17:32;4.05;;;2.00;;
73120;SDS011;61307;49.628;-1.624;2023-05-15T13:20:00;6.57;;;2.28;;
73120;SDS011;61307;49.628;-1.624;2023-05-15T13:22:29;4.05;;;2.20;;
73120;SDS011;61307;49.628;-1.624;2023-05-15T13:24:57;6.13;;;2.28;;
73120;SDS011;61307;49.628;-1.624;2023-05-15T13:27:24;5.43;;;2.20;;
73120;SDS011;61307;49.628;-1.624;2023-05-15T13:29:53;3.72;;;2.00;;
73120;SDS011;61307;49.628;-1.624;2023-05-15T13:32:20;7.72;;;2.55;;
73120;SDS011;61307;49.628;-1.624;2023-05-15T13:34:47;6.90;;;2.45;;
73120;SDS011;61307;49.628;-1.624;2023-05-15T13:37:18;8.02;;;2.47;;
73120;SDS011;61307;49.628;-1.624;2023-05-15T13:39:45;5.90;;;2.10;;
73120;SDS011;61307;49.628;-1.624;2023-05-15T13:42:12;6.40;;;2.03;;
73120;SDS011;61307;49.628;-1.624;2023-05-15T13:44:39;7.53;;;2.10;;
73120;SDS011;61307;49.628;-1.624;2023-05-15T13:47:08;6.75;;;2.10;;
73120;SDS011;61307;49.628;-1.624;2023-05-15T13:49:35;7.80;;;2.30;;
73120;SDS011;61307;49.628;-1.624;2023-05-15T13:52:02;10.38;;;2.40;;
73120;SDS011;61307;49.628;-1.624;2023-05-15T13:54:30;8.20;;;2.53;;
73120;SDS011;61307;49.628;-1.624;2023-05-15T13:56:57;6.35;;;2.30;;
73120;SDS011;61307;49.628;-1.624;2023-05-15T13:59:25;5.40;;;2.30;;
73120;SDS011;61307;49.628;-1.624;2023-05-15T14:01:52;8.05;;;1.90;;
73120;SDS011;61307;49.628;-1.624;2023-05-15T14:04:21;5.50;;;2.28;;
73120;SDS011;61307;49.628;-1.624;2023-05-15T14:06:48;4.00;;;2.33;;
73120;SDS011;61307;49.628;-1.624;2023-05-15T14:09:16;2.75;;;1.92;;
73120;SDS011;61307;49.628;-1.624;2023-05-15T14:11:43;4.65;;;2.08;;
73120;SDS011;61307;49.628;-1.624;2023-05-15T14:14:10;6.10;;;2.17;;
73120;SDS011;61307;49.628;-1.624;2023-05-15T14:16:37;5.60;;;2.33;;
73120;SDS011;61307;49.628;-1.624;2023-05-15T14:19:04;8.13;;;2.22;;
73120;SDS011;61307;49.628;-1.624;2023-05-15T14:21:33;5.38;;;2.10;;
73120;SDS011;61307;49.628;-1.624;2023-05-15T14:24:00;6.95;;;2.03;;
73120;SDS011;61307;49.628;-1.624;2023-05-15T14:26:28;4.93;;;2.13;;
73120;SDS011;61307;49.628;-1.624;2023-05-15T14:28:56;4.82;;;2.13;;
73120;SDS011;61307;49.628;-1.624;2023-05-15T14:31:23;4.00;;;2.30;;
73120;SDS011;61307;49.628;-1.624;2023-05-15T14:33:50;6.20;;;2.10;;
73120;SDS011;61307;49.628;-1.624;2023-05-15T14:36:17;3.97;;;1.92;;
73120;SDS011;61307;49.628;-1.624;2023-05-15T14:38:45;4.70;;;1.77;;
73120;SDS011;61307;49.628;-1.624;2023-05-15T14:41:13;5.82;;;2.22;;
73120;SDS011;61307;49.628;-1.624;2023-05-15T14:43:40;6.05;;;2.60;;